Falera, Switzerland
Current Conditions -  °F | °C
As of 11:20 AM on Thursday 23 Oct 2014 (Local Time) from LSZS Reporting Station
Broken Clouds Broken Clouds  
Wind Chill: 28°   Ceiling: 4000
Heat Index: 34°   Visibility: 6mi
Dew Point: 23°   Wind: 7mph
Humidity: 65%   Direction: 60°ENE
Pressure: 30.06"   Gusts: NA
Location:  46.8°N, 9.23°E
Report Text: LSZS 230920Z 06006KT 010V160 9000 BKN040 01/M05 Q1018 R/SNOCLO
Loading
Personal Weather Stations






























Interactive Weather Map
Tropical Storm Tracking
New forecast layout! Learn more

10-Day Weather Forecast

Advertisements
Track Severe Weather on mobile